sensor_id;sensor_type;location;lat;lon;timestamp;P1;durP1;ratioP1;P2;durP2;ratioP2
31746;SDS011;18319;48.974;8.462;2023-01-28T00:00:34;3.73;;;2.40;;
31746;SDS011;18319;48.974;8.462;2023-01-28T00:03:01;2.40;;;2.20;;
31746;SDS011;18319;48.974;8.462;2023-01-28T00:05:28;2.63;;;2.40;;
31746;SDS011;18319;48.974;8.462;2023-01-28T00:07:56;3.13;;;2.47;;
31746;SDS011;18319;48.974;8.462;2023-01-28T00:10:23;2.60;;;2.40;;
31746;SDS011;18319;48.974;8.462;2023-01-28T00:12:50;2.37;;;2.10;;
31746;SDS011;18319;48.974;8.462;2023-01-28T00:15:17;3.57;;;2.53;;
31746;SDS011;18319;48.974;8.462;2023-01-28T00:17:45;2.17;;;1.97;;
31746;SDS011;18319;48.974;8.462;2023-01-28T00:20:12;3.50;;;2.27;;
31746;SDS011;18319;48.974;8.462;2023-01-28T00:22:39;2.10;;;1.90;;
31746;SDS011;18319;48.974;8.462;2023-01-28T00:25:06;3.30;;;2.30;;
31746;SDS011;18319;48.974;8.462;2023-01-28T00:27:34;2.00;;;1.80;;
31746;SDS011;18319;48.974;8.462;2023-01-28T00:30:01;2.10;;;2.00;;
31746;SDS011;18319;48.974;8.462;2023-01-28T00:32:28;2.50;;;2.30;;
31746;SDS011;18319;48.974;8.462;2023-01-28T00:34:57;2.80;;;2.60;;
31746;SDS011;18319;48.974;8.462;2023-01-28T00:37:24;2.63;;;2.07;;
31746;SDS011;18319;48.974;8.462;2023-01-28T00:39:51;2.30;;;2.10;;
31746;SDS011;18319;48.974;8.462;2023-01-28T00:42:18;1.80;;;1.70;;
31746;SDS011;18319;48.974;8.462;2023-01-28T00:44:45;2.17;;;2.00;;
31746;SDS011;18319;48.974;8.462;2023-01-28T00:47:12;2.77;;;2.53;;
31746;SDS011;18319;48.974;8.462;2023-01-28T00:49:39;2.10;;;2.00;;
31746;SDS011;18319;48.974;8.462;2023-01-28T00:52:08;2.50;;;2.13;;
31746;SDS011;18319;48.974;8.462;2023-01-28T00:54:35;3.30;;;2.40;;
31746;SDS011;18319;48.974;8.462;2023-01-28T00:57:02;1.93;;;1.83;;
31746;SDS011;18319;48.974;8.462;2023-01-28T00:59:29;2.43;;;2.23;;
31746;SDS011;18319;48.974;8.462;2023-01-28T01:01:56;2.37;;;2.17;;
31746;SDS011;18319;48.974;8.462;2023-01-28T01:04:36;2.10;;;2.00;;
31746;SDS011;18319;48.974;8.462;2023-01-28T01:07:03;2.50;;;1.97;;
31746;SDS011;18319;48.974;8.462;2023-01-28T01:09:31;2.23;;;2.03;;
31746;SDS011;18319;48.974;8.462;2023-01-28T01:11:58;2.30;;;2.10;;
31746;SDS011;18319;48.974;8.462;2023-01-28T01:14:26;2.07;;;1.97;;
31746;SDS011;18319;48.974;8.462;2023-01-28T01:16:53;3.63;;;2.40;;
31746;SDS011;18319;48.974;8.462;2023-01-28T01:19:20;2.00;;;1.90;;
31746;SDS011;18319;48.974;8.462;2023-01-28T01:21:47;2.67;;;2.47;;
31746;SDS011;18319;48.974;8.462;2023-01-28T01:24:14;2.30;;;1.97;;
31746;SDS011;18319;48.974;8.462;2023-01-28T01:26:43;1.80;;;1.70;;
31746;SDS011;18319;48.974;8.462;2023-01-28T01:29:10;1.60;;;1.50;;
31746;SDS011;18319;48.974;8.462;2023-01-28T01:31:37;1.97;;;1.87;;
31746;SDS011;18319;48.974;8.462;2023-01-28T01:34:04;1.93;;;1.83;;
31746;SDS011;18319;48.974;8.462;2023-01-28T01:36:31;2.20;;;1.83;;
31746;SDS011;18319;48.974;8.462;2023-01-28T01:38:58;2.07;;;1.97;;
31746;SDS011;18319;48.974;8.462;2023-01-28T01:41:26;4.03;;;2.00;;
31746;SDS011;18319;48.974;8.462;2023-01-28T01:43:56;1.60;;;1.50;;
31746;SDS011;18319;48.974;8.462;2023-01-28T01:46:25;2.20;;;2.00;;
31746;SDS011;18319;48.974;8.462;2023-01-28T01:48:53;2.07;;;1.90;;
31746;SDS011;18319;48.974;8.462;2023-01-28T01:51:23;1.70;;;1.47;;
31746;SDS011;18319;48.974;8.462;2023-01-28T01:53:51;3.07;;;1.90;;
31746;SDS011;18319;48.974;8.462;2023-01-28T01:56:20;3.03;;;2.40;;
31746;SDS011;18319;48.974;8.462;2023-01-28T01:58:49;1.73;;;1.63;;
31746;SDS011;18319;48.974;8.462;2023-01-28T02:01:21;2.10;;;2.00;;
31746;SDS011;18319;48.974;8.462;2023-01-28T02:03:51;2.17;;;1.97;;
31746;SDS011;18319;48.974;8.462;2023-01-28T02:06:19;2.40;;;2.20;;
31746;SDS011;18319;48.974;8.462;2023-01-28T02:08:47;1.83;;;1.73;;
31746;SDS011;18319;48.974;8.462;2023-01-28T02:11:14;1.70;;;1.60;;
31746;SDS011;18319;48.974;8.462;2023-01-28T02:13:43;1.80;;;1.70;;
31746;SDS011;18319;48.974;8.462;2023-01-28T02:16:11;2.20;;;2.00;;
31746;SDS011;18319;48.974;8.462;2023-01-28T02:18:40;2.40;;;2.07;;
31746;SDS011;18319;48.974;8.462;2023-01-28T02:21:15;2.07;;;1.97;;
31746;SDS011;18319;48.974;8.462;2023-01-28T02:23:50;2.90;;;2.30;;
31746;SDS011;18319;48.974;8.462;2023-01-28T02:29:16;2.57;;;2.20;;
31746;SDS011;18319;48.974;8.462;2023-01-28T02:31:48;3.03;;;2.30;;
31746;SDS011;18319;48.974;8.462;2023-01-28T02:34:18;2.90;;;2.00;;
31746;SDS011;18319;48.974;8.462;2023-01-28T02:36:52;2.13;;;2.03;;
31746;SDS011;18319;48.974;8.462;2023-01-28T02:39:21;2.10;;;1.90;;
31746;SDS011;18319;48.974;8.462;2023-01-28T02:41:49;2.60;;;2.40;;
31746;SDS011;18319;48.974;8.462;2023-01-28T02:44:19;2.27;;;2.07;;
31746;SDS011;18319;48.974;8.462;2023-01-28T02:46:46;2.07;;;1.87;;
31746;SDS011;18319;48.974;8.462;2023-01-28T02:49:32;1.77;;;1.67;;
31746;SDS011;18319;48.974;8.462;2023-01-28T02:52:03;2.27;;;1.60;;
31746;SDS011;18319;48.974;8.462;2023-01-28T02:54:35;1.70;;;1.60;;
31746;SDS011;18319;48.974;8.462;2023-01-28T02:57:05;2.50;;;2.27;;
31746;SDS011;18319;48.974;8.462;2023-01-28T02:59:38;2.00;;;1.83;;
31746;SDS011;18319;48.974;8.462;2023-01-28T03:02:09;1.90;;;1.80;;
31746;SDS011;18319;48.974;8.462;2023-01-28T03:04:40;1.97;;;1.83;;
31746;SDS011;18319;48.974;8.462;2023-01-28T03:07:10;2.03;;;1.93;;
31746;SDS011;18319;48.974;8.462;2023-01-28T03:09:38;1.90;;;1.80;;
31746;SDS011;18319;48.974;8.462;2023-01-28T03:12:06;2.50;;;2.30;;
31746;SDS011;18319;48.974;8.462;2023-01-28T03:14:53;2.63;;;2.27;;
31746;SDS011;18319;48.974;8.462;2023-01-28T03:17:41;3.50;;;1.70;;
31746;SDS011;18319;48.974;8.462;2023-01-28T03:20:28;1.80;;;1.70;;
31746;SDS011;18319;48.974;8.462;2023-01-28T03:23:16;1.87;;;1.77;;
31746;SDS011;18319;48.974;8.462;2023-01-28T03:26:04;2.00;;;1.83;;
31746;SDS011;18319;48.974;8.462;2023-01-28T03:28:51;1.83;;;1.73;;
31746;SDS011;18319;48.974;8.462;2023-01-28T03:31:39;2.00;;;1.87;;
31746;SDS011;18319;48.974;8.462;2023-01-28T03:34:24;2.07;;;1.87;;
31746;SDS011;18319;48.974;8.462;2023-01-28T03:37:09;2.40;;;2.20;;
31746;SDS011;18319;48.974;8.462;2023-01-28T03:39:38;4.00;;;2.10;;
31746;SDS011;18319;48.974;8.462;2023-01-28T03:42:07;1.93;;;1.67;;
31746;SDS011;18319;48.974;8.462;2023-01-28T03:44:34;2.63;;;2.43;;
31746;SDS011;18319;48.974;8.462;2023-01-28T03:47:23;1.77;;;1.67;;
31746;SDS011;18319;48.974;8.462;2023-01-28T03:49:51;2.47;;;2.03;;
31746;SDS011;18319;48.974;8.462;2023-01-28T03:52:19;2.60;;;2.40;;
31746;SDS011;18319;48.974;8.462;2023-01-28T03:54:46;2.60;;;2.40;;
31746;SDS011;18319;48.974;8.462;2023-01-28T03:57:14;2.27;;;1.87;;
31746;SDS011;18319;48.974;8.462;2023-01-28T03:59:41;3.10;;;2.30;;
31746;SDS011;18319;48.974;8.462;2023-01-28T04:02:08;2.37;;;2.17;;
31746;SDS011;18319;48.974;8.462;2023-01-28T04:04:38;2.50;;;2.30;;
31746;SDS011;18319;48.974;8.462;2023-01-28T04:07:05;2.67;;;2.47;;
31746;SDS011;18319;48.974;8.462;2023-01-28T04:09:33;2.80;;;2.60;;
31746;SDS011;18319;48.974;8.462;2023-01-28T04:12:00;3.30;;;2.87;;
31746;SDS011;18319;48.974;8.462;2023-01-28T04:14:27;2.20;;;2.00;;
31746;SDS011;18319;48.974;8.462;2023-01-28T04:16:54;2.53;;;2.20;;
31746;SDS011;18319;48.974;8.462;2023-01-28T04:19:21;3.10;;;2.90;;
31746;SDS011;18319;48.974;8.462;2023-01-28T04:21:50;3.10;;;2.90;;
31746;SDS011;18319;48.974;8.462;2023-01-28T04:24:18;2.37;;;2.17;;
31746;SDS011;18319;48.974;8.462;2023-01-28T04:26:45;2.10;;;2.00;;
31746;SDS011;18319;48.974;8.462;2023-01-28T04:29:12;2.67;;;2.47;;
31746;SDS011;18319;48.974;8.462;2023-01-28T04:31:40;2.70;;;2.50;;
31746;SDS011;18319;48.974;8.462;2023-01-28T04:34:07;2.93;;;2.63;;
31746;SDS011;18319;48.974;8.462;2023-01-28T04:36:34;2.27;;;2.17;;
31746;SDS011;18319;48.974;8.462;2023-01-28T04:39:03;2.43;;;2.23;;
31746;SDS011;18319;48.974;8.462;2023-01-28T04:41:30;2.87;;;2.53;;
31746;SDS011;18319;48.974;8.462;2023-01-28T04:43:57;3.70;;;2.90;;
31746;SDS011;18319;48.974;8.462;2023-01-28T04:46:24;2.63;;;2.43;;
31746;SDS011;18319;48.974;8.462;2023-01-28T04:48:51;3.37;;;2.50;;
31746;SDS011;18319;48.974;8.462;2023-01-28T04:51:18;2.67;;;2.50;;
31746;SDS011;18319;48.974;8.462;2023-01-28T04:53:45;2.67;;;2.47;;
31746;SDS011;18319;48.974;8.462;2023-01-28T04:56:14;2.47;;;2.33;;
31746;SDS011;18319;48.974;8.462;2023-01-28T04:58:41;2.90;;;2.67;;
31746;SDS011;18319;48.974;8.462;2023-01-28T05:01:08;2.87;;;2.67;;
31746;SDS011;18319;48.974;8.462;2023-01-28T05:03:36;2.50;;;2.30;;
31746;SDS011;18319;48.974;8.462;2023-01-28T05:06:03;3.07;;;2.83;;
31746;SDS011;18319;48.974;8.462;2023-01-28T05:08:30;2.60;;;2.40;;
31746;SDS011;18319;48.974;8.462;2023-01-28T05:10:57;2.67;;;2.47;;
31746;SDS011;18319;48.974;8.462;2023-01-28T05:13:26;2.70;;;2.50;;
31746;SDS011;18319;48.974;8.462;2023-01-28T05:15:53;2.60;;;2.40;;
31746;SDS011;18319;48.974;8.462;2023-01-28T05:18:20;3.30;;;2.10;;
31746;SDS011;18319;48.974;8.462;2023-01-28T05:20:47;2.63;;;2.43;;
31746;SDS011;18319;48.974;8.462;2023-01-28T05:23:14;2.60;;;2.40;;
31746;SDS011;18319;48.974;8.462;2023-01-28T05:25:41;4.90;;;2.27;;
31746;SDS011;18319;48.974;8.462;2023-01-28T05:28:09;3.17;;;2.20;;
31746;SDS011;18319;48.974;8.462;2023-01-28T05:30:38;2.50;;;2.30;;
31746;SDS011;18319;48.974;8.462;2023-01-28T05:33:05;2.40;;;2.20;;
31746;SDS011;18319;48.974;8.462;2023-01-28T05:35:32;2.67;;;2.20;;
31746;SDS011;18319;48.974;8.462;2023-01-28T05:38:00;2.43;;;2.33;;
31746;SDS011;18319;48.974;8.462;2023-01-28T05:40:27;2.53;;;2.33;;
31746;SDS011;18319;48.974;8.462;2023-01-28T05:42:54;2.30;;;2.10;;
31746;SDS011;18319;48.974;8.462;2023-01-28T05:45:21;2.50;;;2.30;;
31746;SDS011;18319;48.974;8.462;2023-01-28T05:47:50;2.50;;;2.30;;
31746;SDS011;18319;48.974;8.462;2023-01-28T05:50:17;2.40;;;2.30;;
31746;SDS011;18319;48.974;8.462;2023-01-28T05:52:44;2.90;;;2.70;;
31746;SDS011;18319;48.974;8.462;2023-01-28T05:55:11;2.73;;;2.53;;
31746;SDS011;18319;48.974;8.462;2023-01-28T05:57:38;2.80;;;2.60;;
31746;SDS011;18319;48.974;8.462;2023-01-28T06:00:06;2.90;;;2.40;;
31746;SDS011;18319;48.974;8.462;2023-01-28T06:02:33;3.20;;;2.90;;
31746;SDS011;18319;48.974;8.462;2023-01-28T06:05:02;3.57;;;2.80;;
31746;SDS011;18319;48.974;8.462;2023-01-28T06:07:29;3.60;;;3.40;;
31746;SDS011;18319;48.974;8.462;2023-01-28T06:09:56;3.40;;;3.10;;
31746;SDS011;18319;48.974;8.462;2023-01-28T06:12:23;3.20;;;2.90;;
31746;SDS011;18319;48.974;8.462;2023-01-28T06:14:50;3.03;;;2.57;;
31746;SDS011;18319;48.974;8.462;2023-01-28T06:17:17;4.57;;;3.27;;
31746;SDS011;18319;48.974;8.462;2023-01-28T06:19:44;3.53;;;3.23;;
31746;SDS011;18319;48.974;8.462;2023-01-28T06:22:13;2.70;;;2.50;;
31746;SDS011;18319;48.974;8.462;2023-01-28T06:24:40;3.20;;;2.90;;
31746;SDS011;18319;48.974;8.462;2023-01-28T06:27:07;3.57;;;3.27;;
31746;SDS011;18319;48.974;8.462;2023-01-28T06:29:34;3.10;;;2.90;;
31746;SDS011;18319;48.974;8.462;2023-01-28T06:32:01;3.73;;;3.23;;
31746;SDS011;18319;48.974;8.462;2023-01-28T06:34:28;3.17;;;2.97;;
31746;SDS011;18319;48.974;8.462;2023-01-28T06:36:55;3.60;;;3.30;;
31746;SDS011;18319;48.974;8.462;2023-01-28T06:39:23;2.97;;;2.77;;
31746;SDS011;18319;48.974;8.462;2023-01-28T06:41:52;4.03;;;3.73;;
31746;SDS011;18319;48.974;8.462;2023-01-28T06:44:19;2.87;;;2.67;;
31746;SDS011;18319;48.974;8.462;2023-01-28T06:46:47;3.07;;;2.87;;
31746;SDS011;18319;48.974;8.462;2023-01-28T06:49:14;3.43;;;3.13;;
31746;SDS011;18319;48.974;8.462;2023-01-28T06:51:41;2.80;;;2.60;;
31746;SDS011;18319;48.974;8.462;2023-01-28T06:54:08;4.50;;;3.47;;
31746;SDS011;18319;48.974;8.462;2023-01-28T06:56:37;3.30;;;3.00;;
31746;SDS011;18319;48.974;8.462;2023-01-28T06:59:04;2.80;;;2.60;;
31746;SDS011;18319;48.974;8.462;2023-01-28T07:01:31;3.13;;;2.90;;
31746;SDS011;18319;48.974;8.462;2023-01-28T07:03:58;3.33;;;3.10;;
31746;SDS011;18319;48.974;8.462;2023-01-28T07:06:25;3.90;;;3.60;;
31746;SDS011;18319;48.974;8.462;2023-01-28T07:08:53;3.13;;;2.87;;
31746;SDS011;18319;48.974;8.462;2023-01-28T07:11:20;2.90;;;2.70;;
31746;SDS011;18319;48.974;8.462;2023-01-28T07:13:48;3.17;;;2.87;;
31746;SDS011;18319;48.974;8.462;2023-01-28T07:16:15;3.17;;;2.97;;
31746;SDS011;18319;48.974;8.462;2023-01-28T07:18:42;2.77;;;2.50;;
31746;SDS011;18319;48.974;8.462;2023-01-28T07:21:09;2.47;;;2.27;;
31746;SDS011;18319;48.974;8.462;2023-01-28T07:23:36;3.40;;;3.10;;
31746;SDS011;18319;48.974;8.462;2023-01-28T07:26:04;3.77;;;3.37;;
31746;SDS011;18319;48.974;8.462;2023-01-28T07:28:31;3.40;;;3.10;;
31746;SDS011;18319;48.974;8.462;2023-01-28T07:31:00;3.67;;;3.37;;
31746;SDS011;18319;48.974;8.462;2023-01-28T07:33:27;4.13;;;3.73;;
31746;SDS011;18319;48.974;8.462;2023-01-28T07:35:54;3.47;;;3.17;;
31746;SDS011;18319;48.974;8.462;2023-01-28T07:38:21;3.77;;;3.40;;
31746;SDS011;18319;48.974;8.462;2023-01-28T07:40:48;3.77;;;3.07;;
31746;SDS011;18319;48.974;8.462;2023-01-28T07:43:15;3.77;;;3.47;;
31746;SDS011;18319;48.974;8.462;2023-01-28T07:45:43;3.03;;;2.83;;
31746;SDS011;18319;48.974;8.462;2023-01-28T07:48:11;3.57;;;3.27;;
31746;SDS011;18319;48.974;8.462;2023-01-28T07:50:39;3.07;;;2.73;;
31746;SDS011;18319;48.974;8.462;2023-01-28T07:53:07;3.53;;;3.23;;
31746;SDS011;18319;48.974;8.462;2023-01-28T07:55:34;5.97;;;4.27;;
31746;SDS011;18319;48.974;8.462;2023-01-28T07:58:02;4.87;;;3.60;;
31746;SDS011;18319;48.974;8.462;2023-01-28T08:00:31;3.70;;;3.40;;
31746;SDS011;18319;48.974;8.462;2023-01-28T08:02:59;5.03;;;3.30;;
31746;SDS011;18319;48.974;8.462;2023-01-28T08:05:29;3.43;;;3.13;;
31746;SDS011;18319;48.974;8.462;2023-01-28T08:07:58;3.73;;;3.30;;
31746;SDS011;18319;48.974;8.462;2023-01-28T08:10:25;3.97;;;3.67;;
31746;SDS011;18319;48.974;8.462;2023-01-28T08:12:52;4.00;;;3.60;;
31746;SDS011;18319;48.974;8.462;2023-01-28T08:15:20;4.00;;;3.63;;
31746;SDS011;18319;48.974;8.462;2023-01-28T08:17:47;4.23;;;3.83;;
31746;SDS011;18319;48.974;8.462;2023-01-28T08:20:14;4.63;;;4.23;;
31746;SDS011;18319;48.974;8.462;2023-01-28T08:22:43;3.60;;;3.30;;
31746;SDS011;18319;48.974;8.462;2023-01-28T08:25:10;3.73;;;3.33;;
31746;SDS011;18319;48.974;8.462;2023-01-28T08:27:37;4.13;;;3.73;;
31746;SDS011;18319;48.974;8.462;2023-01-28T08:30:05;3.97;;;3.67;;
31746;SDS011;18319;48.974;8.462;2023-01-28T08:32:33;4.47;;;4.07;;
31746;SDS011;18319;48.974;8.462;2023-01-28T08:35:00;5.30;;;4.80;;
31746;SDS011;18319;48.974;8.462;2023-01-28T08:37:27;4.37;;;3.97;;
31746;SDS011;18319;48.974;8.462;2023-01-28T08:39:56;5.23;;;4.33;;
31746;SDS011;18319;48.974;8.462;2023-01-28T08:42:23;4.90;;;4.40;;
31746;SDS011;18319;48.974;8.462;2023-01-28T08:44:50;5.60;;;3.90;;
31746;SDS011;18319;48.974;8.462;2023-01-28T08:47:17;3.77;;;3.27;;
31746;SDS011;18319;48.974;8.462;2023-01-28T08:49:44;4.60;;;3.57;;
31746;SDS011;18319;48.974;8.462;2023-01-28T08:52:12;4.67;;;4.27;;
31746;SDS011;18319;48.974;8.462;2023-01-28T08:54:39;5.30;;;4.63;;
31746;SDS011;18319;48.974;8.462;2023-01-28T08:57:07;4.70;;;4.17;;
31746;SDS011;18319;48.974;8.462;2023-01-28T08:59:34;5.60;;;5.07;;
31746;SDS011;18319;48.974;8.462;2023-01-28T09:02:04;4.10;;;3.80;;
31746;SDS011;18319;48.974;8.462;2023-01-28T09:04:32;5.00;;;4.50;;
31746;SDS011;18319;48.974;8.462;2023-01-28T09:06:59;4.20;;;3.80;;
31746;SDS011;18319;48.974;8.462;2023-01-28T09:09:26;5.70;;;4.20;;
31746;SDS011;18319;48.974;8.462;2023-01-28T09:11:53;5.00;;;4.50;;
31746;SDS011;18319;48.974;8.462;2023-01-28T09:14:21;3.83;;;3.43;;
31746;SDS011;18319;48.974;8.462;2023-01-28T09:16:48;4.43;;;4.03;;
31746;SDS011;18319;48.974;8.462;2023-01-28T09:19:15;4.40;;;4.00;;
31746;SDS011;18319;48.974;8.462;2023-01-28T09:21:42;4.10;;;3.73;;
31746;SDS011;18319;48.974;8.462;2023-01-28T09:24:09;5.03;;;4.30;;
31746;SDS011;18319;48.974;8.462;2023-01-28T09:26:37;4.03;;;3.63;;
31746;SDS011;18319;48.974;8.462;2023-01-28T09:29:04;4.90;;;4.20;;
31746;SDS011;18319;48.974;8.462;2023-01-28T09:31:32;5.03;;;4.63;;
31746;SDS011;18319;48.974;8.462;2023-01-28T09:33:59;4.90;;;4.50;;
31746;SDS011;18319;48.974;8.462;2023-01-28T09:36:28;5.87;;;3.90;;
31746;SDS011;18319;48.974;8.462;2023-01-28T09:38:55;4.80;;;3.87;;
31746;SDS011;18319;48.974;8.462;2023-01-28T09:44:09;4.63;;;3.80;;
31746;SDS011;18319;48.974;8.462;2023-01-28T09:46:42;4.60;;;4.10;;
31746;SDS011;18319;48.974;8.462;2023-01-28T09:49:13;3.53;;;3.23;;
31746;SDS011;18319;48.974;8.462;2023-01-28T09:51:44;4.60;;;3.90;;
31746;SDS011;18319;48.974;8.462;2023-01-28T09:54:14;4.77;;;4.30;;
31746;SDS011;18319;48.974;8.462;2023-01-28T09:56:44;5.30;;;3.83;;
31746;SDS011;18319;48.974;8.462;2023-01-28T09:59:16;4.40;;;3.73;;
31746;SDS011;18319;48.974;8.462;2023-01-28T10:01:46;7.87;;;4.07;;
31746;SDS011;18319;48.974;8.462;2023-01-28T10:04:18;4.67;;;3.70;;
31746;SDS011;18319;48.974;8.462;2023-01-28T10:06:50;4.90;;;4.00;;
31746;SDS011;18319;48.974;8.462;2023-01-28T10:09:25;5.23;;;3.77;;
31746;SDS011;18319;48.974;8.462;2023-01-28T10:11:57;4.93;;;4.07;;
31746;SDS011;18319;48.974;8.462;2023-01-28T10:14:31;3.90;;;3.50;;
31746;SDS011;18319;48.974;8.462;2023-01-28T10:17:04;4.03;;;3.63;;
31746;SDS011;18319;48.974;8.462;2023-01-28T10:19:34;4.53;;;3.93;;
31746;SDS011;18319;48.974;8.462;2023-01-28T10:22:02;4.30;;;3.90;;
31746;SDS011;18319;48.974;8.462;2023-01-28T10:24:32;4.33;;;3.73;;
31746;SDS011;18319;48.974;8.462;2023-01-28T10:26:59;4.67;;;3.83;;
31746;SDS011;18319;48.974;8.462;2023-01-28T10:29:28;4.40;;;4.00;;
31746;SDS011;18319;48.974;8.462;2023-01-28T10:31:57;5.50;;;3.63;;
31746;SDS011;18319;48.974;8.462;2023-01-28T10:34:26;4.63;;;4.20;;
31746;SDS011;18319;48.974;8.462;2023-01-28T10:36:53;4.03;;;3.67;;
31746;SDS011;18319;48.974;8.462;2023-01-28T10:39:23;4.50;;;3.67;;
31746;SDS011;18319;48.974;8.462;2023-01-28T10:41:51;4.43;;;4.03;;
31746;SDS011;18319;48.974;8.462;2023-01-28T10:44:19;4.50;;;4.20;;
31746;SDS011;18319;48.974;8.462;2023-01-28T10:46:47;5.63;;;4.77;;
31746;SDS011;18319;48.974;8.462;2023-01-28T10:49:17;4.13;;;3.67;;
31746;SDS011;18319;48.974;8.462;2023-01-28T10:51:47;6.37;;;4.10;;
31746;SDS011;18319;48.974;8.462;2023-01-28T10:54:16;4.20;;;3.80;;
31746;SDS011;18319;48.974;8.462;2023-01-28T10:56:44;4.53;;;4.13;;
31746;SDS011;18319;48.974;8.462;2023-01-28T10:59:17;7.60;;;5.77;;
31746;SDS011;18319;48.974;8.462;2023-01-28T11:01:46;5.77;;;5.20;;
31746;SDS011;18319;48.974;8.462;2023-01-28T11:04:14;7.93;;;4.60;;
31746;SDS011;18319;48.974;8.462;2023-01-28T11:06:50;9.17;;;7.60;;
31746;SDS011;18319;48.974;8.462;2023-01-28T11:09:22;8.83;;;6.97;;
31746;SDS011;18319;48.974;8.462;2023-01-28T11:11:50;6.00;;;5.50;;
31746;SDS011;18319;48.974;8.462;2023-01-28T11:14:18;6.40;;;4.27;;
31746;SDS011;18319;48.974;8.462;2023-01-28T11:16:46;4.67;;;4.27;;
31746;SDS011;18319;48.974;8.462;2023-01-28T11:19:13;6.20;;;4.03;;
31746;SDS011;18319;48.974;8.462;2023-01-28T11:21:40;4.60;;;4.20;;
31746;SDS011;18319;48.974;8.462;2023-01-28T11:24:14;5.57;;;4.23;;
31746;SDS011;18319;48.974;8.462;2023-01-28T11:26:46;4.60;;;4.20;;
31746;SDS011;18319;48.974;8.462;2023-01-28T11:29:20;4.60;;;4.20;;
31746;SDS011;18319;48.974;8.462;2023-01-28T11:31:48;4.83;;;4.20;;
31746;SDS011;18319;48.974;8.462;2023-01-28T11:34:16;4.97;;;4.40;;
31746;SDS011;18319;48.974;8.462;2023-01-28T11:36:48;4.47;;;4.07;;
31746;SDS011;18319;48.974;8.462;2023-01-28T11:39:17;5.13;;;4.70;;
31746;SDS011;18319;48.974;8.462;2023-01-28T11:41:47;6.50;;;5.87;;
31746;SDS011;18319;48.974;8.462;2023-01-28T11:44:14;5.10;;;4.60;;
31746;SDS011;18319;48.974;8.462;2023-01-28T11:49:37;5.20;;;4.50;;
31746;SDS011;18319;48.974;8.462;2023-01-28T11:52:09;5.07;;;4.00;;
31746;SDS011;18319;48.974;8.462;2023-01-28T11:54:46;4.13;;;3.70;;
31746;SDS011;18319;48.974;8.462;2023-01-28T11:57:20;5.03;;;4.53;;
31746;SDS011;18319;48.974;8.462;2023-01-28T11:59:53;4.67;;;4.27;;
31746;SDS011;18319;48.974;8.462;2023-01-28T12:02:37;5.77;;;3.57;;
31746;SDS011;18319;48.974;8.462;2023-01-28T12:05:07;5.03;;;3.43;;
31746;SDS011;18319;48.974;8.462;2023-01-28T12:07:39;4.67;;;4.27;;
31746;SDS011;18319;48.974;8.462;2023-01-28T12:10:13;3.90;;;3.10;;
31746;SDS011;18319;48.974;8.462;2023-01-28T12:15:48;3.73;;;3.20;;
31746;SDS011;18319;48.974;8.462;2023-01-28T12:18:27;3.87;;;3.47;;
31746;SDS011;18319;48.974;8.462;2023-01-28T12:20:56;4.33;;;3.67;;
31746;SDS011;18319;48.974;8.462;2023-01-28T12:23:35;5.27;;;4.37;;
31746;SDS011;18319;48.974;8.462;2023-01-28T12:26:07;4.33;;;3.90;;
31746;SDS011;18319;48.974;8.462;2023-01-28T12:31:30;3.70;;;3.40;;
31746;SDS011;18319;48.974;8.462;2023-01-28T12:34:11;5.97;;;5.33;;
31746;SDS011;18319;48.974;8.462;2023-01-28T12:36:47;5.23;;;4.73;;
31746;SDS011;18319;48.974;8.462;2023-01-28T12:39:20;5.50;;;4.33;;
31746;SDS011;18319;48.974;8.462;2023-01-28T12:41:48;4.20;;;3.80;;
31746;SDS011;18319;48.974;8.462;2023-01-28T12:44:18;4.47;;;4.03;;
31746;SDS011;18319;48.974;8.462;2023-01-28T12:46:48;4.53;;;3.60;;
31746;SDS011;18319;48.974;8.462;2023-01-28T12:49:18;4.30;;;3.90;;
31746;SDS011;18319;48.974;8.462;2023-01-28T12:51:52;4.10;;;3.70;;
31746;SDS011;18319;48.974;8.462;2023-01-28T12:54:21;3.53;;;3.27;;
31746;SDS011;18319;48.974;8.462;2023-01-28T12:56:51;3.90;;;3.60;;
31746;SDS011;18319;48.974;8.462;2023-01-28T12:59:20;3.63;;;3.27;;
31746;SDS011;18319;48.974;8.462;2023-01-28T13:01:52;3.33;;;2.83;;
31746;SDS011;18319;48.974;8.462;2023-01-28T13:04:23;3.23;;;2.93;;
31746;SDS011;18319;48.974;8.462;2023-01-28T13:06:53;3.37;;;3.07;;
31746;SDS011;18319;48.974;8.462;2023-01-28T13:09:23;3.47;;;3.27;;
31746;SDS011;18319;48.974;8.462;2023-01-28T13:11:52;4.20;;;3.77;;
31746;SDS011;18319;48.974;8.462;2023-01-28T13:14:21;3.83;;;3.53;;
31746;SDS011;18319;48.974;8.462;2023-01-28T13:16:50;3.17;;;2.97;;
31746;SDS011;18319;48.974;8.462;2023-01-28T13:19:22;3.07;;;2.77;;
31746;SDS011;18319;48.974;8.462;2023-01-28T13:21:50;2.87;;;2.67;;
31746;SDS011;18319;48.974;8.462;2023-01-28T13:24:19;3.23;;;2.93;;
31746;SDS011;18319;48.974;8.462;2023-01-28T13:26:47;3.47;;;3.17;;
31746;SDS011;18319;48.974;8.462;2023-01-28T13:29:17;3.10;;;2.90;;
31746;SDS011;18319;48.974;8.462;2023-01-28T13:31:45;3.87;;;3.40;;
31746;SDS011;18319;48.974;8.462;2023-01-28T13:34:26;2.83;;;2.63;;
31746;SDS011;18319;48.974;8.462;2023-01-28T13:36:57;3.97;;;3.47;;
31746;SDS011;18319;48.974;8.462;2023-01-28T13:39:25;3.53;;;3.23;;
31746;SDS011;18319;48.974;8.462;2023-01-28T13:41:53;3.23;;;3.03;;
31746;SDS011;18319;48.974;8.462;2023-01-28T13:44:25;3.23;;;3.00;;
31746;SDS011;18319;48.974;8.462;2023-01-28T13:46:53;3.10;;;2.90;;
31746;SDS011;18319;48.974;8.462;2023-01-28T13:49:21;3.13;;;2.93;;
31746;SDS011;18319;48.974;8.462;2023-01-28T13:51:54;3.70;;;3.40;;
31746;SDS011;18319;48.974;8.462;2023-01-28T13:54:22;3.60;;;3.40;;
31746;SDS011;18319;48.974;8.462;2023-01-28T13:56:54;3.40;;;3.10;;
31746;SDS011;18319;48.974;8.462;2023-01-28T13:59:30;3.10;;;2.87;;
31746;SDS011;18319;48.974;8.462;2023-01-28T14:02:22;3.23;;;3.03;;
31746;SDS011;18319;48.974;8.462;2023-01-28T14:07:52;3.43;;;3.13;;
31746;SDS011;18319;48.974;8.462;2023-01-28T14:10:36;3.10;;;2.90;;
31746;SDS011;18319;48.974;8.462;2023-01-28T14:13:11;4.33;;;3.93;;
31746;SDS011;18319;48.974;8.462;2023-01-28T14:15:45;3.40;;;3.17;;
31746;SDS011;18319;48.974;8.462;2023-01-28T14:18:19;3.40;;;3.10;;
31746;SDS011;18319;48.974;8.462;2023-01-28T14:20:48;4.60;;;3.20;;
31746;SDS011;18319;48.974;8.462;2023-01-28T14:23:17;4.00;;;3.63;;
31746;SDS011;18319;48.974;8.462;2023-01-28T14:25:49;3.80;;;3.50;;
31746;SDS011;18319;48.974;8.462;2023-01-28T14:28:19;3.07;;;2.87;;
31746;SDS011;18319;48.974;8.462;2023-01-28T14:30:52;3.47;;;3.20;;
31746;SDS011;18319;48.974;8.462;2023-01-28T14:33:20;3.53;;;3.23;;
31746;SDS011;18319;48.974;8.462;2023-01-28T14:35:48;3.73;;;3.43;;
31746;SDS011;18319;48.974;8.462;2023-01-28T14:38:16;2.67;;;2.47;;
31746;SDS011;18319;48.974;8.462;2023-01-28T14:40:47;3.23;;;3.03;;
31746;SDS011;18319;48.974;8.462;2023-01-28T14:43:15;2.87;;;2.67;;
31746;SDS011;18319;48.974;8.462;2023-01-28T14:45:50;3.53;;;3.13;;
31746;SDS011;18319;48.974;8.462;2023-01-28T14:48:22;3.00;;;2.80;;
31746;SDS011;18319;48.974;8.462;2023-01-28T14:56:21;3.10;;;2.80;;
31746;SDS011;18319;48.974;8.462;2023-01-28T14:58:55;3.20;;;2.83;;
31746;SDS011;18319;48.974;8.462;2023-01-28T15:01:23;2.93;;;2.73;;
31746;SDS011;18319;48.974;8.462;2023-01-28T15:03:51;4.67;;;2.63;;
31746;SDS011;18319;48.974;8.462;2023-01-28T15:06:19;3.93;;;2.60;;
31746;SDS011;18319;48.974;8.462;2023-01-28T15:08:48;2.80;;;2.60;;
31746;SDS011;18319;48.974;8.462;2023-01-28T15:11:16;3.20;;;2.90;;
31746;SDS011;18319;48.974;8.462;2023-01-28T15:13:47;3.27;;;2.60;;
31746;SDS011;18319;48.974;8.462;2023-01-28T15:16:15;2.70;;;2.50;;
31746;SDS011;18319;48.974;8.462;2023-01-28T15:18:43;2.77;;;2.60;;
31746;SDS011;18319;48.974;8.462;2023-01-28T15:21:11;3.10;;;2.80;;
31746;SDS011;18319;48.974;8.462;2023-01-28T15:23:39;3.50;;;2.93;;